Terminal Aerodrome Forecast
Issued by NWS Grand Forks, ND

Home | Current Version | Previous Version | Graphics & Text | Print | Product List | Glossary On
Versions: 1 2 3 4 5 6 7 8 9 10 11 12 13 14 15 16 17
000
FTUS43 KFGF 281700 CCA
TAFGFK
TAF COR
KGFK 281726Z 2818/2918 16010KT P6SM BKN015
      TEMPO 2818/2820 BKN020
     FM282000 18012KT P6SM BKN020
     FM290800 17004KT P6SM BKN015
     FM291600 30007KT P6SM BKN100=

USA.gov is the U.S. government's official web portal to all federal, state and local government web resources and services.